createdAt,value
2023-11-18T00:00:58.087Z,4.35
2023-11-18T00:03:26.365Z,4.40
2023-11-18T00:05:54.167Z,4.37
2023-11-18T00:08:21.883Z,4.43
2023-11-18T00:10:51.192Z,4.46
2023-11-18T00:13:18.953Z,4.54
2023-11-18T00:15:49.245Z,4.49
2023-11-18T00:18:17.240Z,4.41
2023-11-18T00:20:45.181Z,4.52
2023-11-18T00:23:14.116Z,4.56
2023-11-18T00:25:41.975Z,4.52
2023-11-18T00:28:11.142Z,4.58
2023-11-18T00:30:38.797Z,4.35
2023-11-18T00:33:06.585Z,4.37
2023-11-18T00:35:34.997Z,4.23
2023-11-18T00:38:03.731Z,4.26
2023-11-18T00:40:31.748Z,4.24
2023-11-18T00:42:59.681Z,4.16
2023-11-18T00:45:29.838Z,4.16
2023-11-18T00:47:57.713Z,4.24
2023-11-18T00:50:25.471Z,4.12
2023-11-18T00:52:53.207Z,4.10
2023-11-18T00:55:22.157Z,4.02
2023-11-18T00:57:49.844Z,3.99
2023-11-18T01:00:22.689Z,3.93
2023-11-18T01:02:52.231Z,3.95
2023-11-18T01:05:20.212Z,4.18
2023-11-18T01:07:48.008Z,4.28
2023-11-18T01:10:15.852Z,4.31
2023-11-18T01:12:45.251Z,4.31
2023-11-18T01:15:13.689Z,4.41
2023-11-18T01:17:42.240Z,4.39
2023-11-18T01:20:16.930Z,4.43
2023-11-18T01:22:46.836Z,4.57
2023-11-18T01:25:14.638Z,4.62
2023-11-18T01:27:42.817Z,4.49
2023-11-18T01:30:11.906Z,4.47
2023-11-18T01:32:41.390Z,4.54
2023-11-18T01:35:13.486Z,4.49
2023-11-18T01:37:41.468Z,4.72
2023-11-18T01:40:10.129Z,4.69
2023-11-18T01:42:38.305Z,4.67
2023-11-18T01:45:09.551Z,4.44
2023-11-18T01:47:37.934Z,4.28
2023-11-18T01:50:08.094Z,4.16
2023-11-18T01:52:37.736Z,3.97
2023-11-18T01:55:09.060Z,3.85
2023-11-18T01:57:38.125Z,3.77
2023-11-18T02:00:12.464Z,3.65
2023-11-18T02:02:41.000Z,3.65
2023-11-18T02:05:09.513Z,3.59
2023-11-18T02:07:41.872Z,3.72
2023-11-18T02:10:11.056Z,3.81
2023-11-18T02:12:46.499Z,3.82
2023-11-18T02:15:17.361Z,3.74
2023-11-18T02:17:47.961Z,3.66
2023-11-18T02:20:22.115Z,3.46
2023-11-18T02:22:51.789Z,3.51
2023-11-18T02:25:20.469Z,3.55
2023-11-18T02:27:50.006Z,3.60
2023-11-18T02:30:18.476Z,3.47
2023-11-18T02:32:51.162Z,3.34
2023-11-18T02:35:26.949Z,3.28
2023-11-18T02:37:57.557Z,3.13
2023-11-18T02:40:32.348Z,3.06
2023-11-18T02:43:03.113Z,3.05
2023-11-18T02:45:33.083Z,3.04
2023-11-18T02:48:01.364Z,3.09
2023-11-18T02:50:30.310Z,2.84
2023-11-18T02:52:58.459Z,2.75
2023-11-18T02:55:27.079Z,2.66
2023-11-18T02:57:54.845Z,2.57
2023-11-18T03:00:23.942Z,2.42
2023-11-18T03:02:53.717Z,2.45
2023-11-18T03:05:22.452Z,2.52
2023-11-18T03:07:52.944Z,2.53
2023-11-18T03:10:23.041Z,2.52
2023-11-18T03:12:51.403Z,2.28
2023-11-18T03:15:19.208Z,2.33
2023-11-18T03:17:49.540Z,2.28
2023-11-18T03:20:18.199Z,2.23
2023-11-18T03:22:46.922Z,2.41
2023-11-18T03:25:14.923Z,2.40
2023-11-18T03:27:42.878Z,2.33
2023-11-18T03:30:11.912Z,2.36
2023-11-18T03:32:41.003Z,2.42
2023-11-18T03:35:11.437Z,2.46
2023-11-18T03:37:42.230Z,2.39
2023-11-18T03:40:12.475Z,2.28
2023-11-18T03:42:40.923Z,2.01
2023-11-18T03:45:10.363Z,2.14
2023-11-18T03:47:38.214Z,1.94
2023-11-18T03:50:09.461Z,2.06
2023-11-18T03:52:39.673Z,2.10
2023-11-18T03:55:08.244Z,2.20
2023-11-18T03:57:36.276Z,2.24
2023-11-18T04:00:04.895Z,2.29
2023-11-18T04:02:33.083Z,2.33
2023-11-18T04:05:00.914Z,2.45
2023-11-18T04:07:30.844Z,2.54
2023-11-18T04:10:01.310Z,2.54
2023-11-18T04:12:29.141Z,2.72
2023-11-18T04:14:56.893Z,2.76
2023-11-18T04:17:24.600Z,2.84
2023-11-18T04:19:52.456Z,2.88
2023-11-18T04:22:20.292Z,2.95
2023-11-18T04:24:48.161Z,2.85
2023-11-18T04:27:17.404Z,2.81
2023-11-18T04:29:45.057Z,2.78
2023-11-18T04:32:15.038Z,2.71
2023-11-18T04:34:43.508Z,2.65
2023-11-18T04:37:11.180Z,2.73
2023-11-18T04:39:39.232Z,2.68
2023-11-18T04:42:07.309Z,2.65
2023-11-18T04:44:36.382Z,2.74
2023-11-18T04:47:04.376Z,2.81
2023-11-18T04:49:32.096Z,2.85
2023-11-18T04:52:00.035Z,2.83
2023-11-18T04:54:28.062Z,2.78
2023-11-18T04:56:55.778Z,2.84
2023-11-18T04:59:23.593Z,3.02
2023-11-18T05:01:54.210Z,2.99
2023-11-18T05:04:22.193Z,2.93
2023-11-18T05:06:49.910Z,2.94
2023-11-18T05:09:19.637Z,3.02
2023-11-18T05:11:47.439Z,3.07
2023-11-18T05:14:17.938Z,2.94
2023-11-18T05:16:46.049Z,2.89
2023-11-18T05:19:15.504Z,2.95
2023-11-18T05:21:43.843Z,3.10
2023-11-18T05:24:11.702Z,3.05
2023-11-18T05:26:39.387Z,3.13
2023-11-18T05:29:07.241Z,3.14
2023-11-18T05:31:35.225Z,3.09
2023-11-18T05:34:04.332Z,3.00
2023-11-18T05:36:38.654Z,2.96
2023-11-18T05:39:08.205Z,2.93
2023-11-18T05:41:36.393Z,2.97
2023-11-18T05:44:04.343Z,2.96
2023-11-18T05:46:33.461Z,3.01
2023-11-18T05:49:06.653Z,3.04
2023-11-18T05:51:36.150Z,2.99
2023-11-18T05:54:04.096Z,2.98
2023-11-18T05:56:33.049Z,3.10
2023-11-18T05:59:04.055Z,3.14
2023-11-18T06:01:32.756Z,3.10
2023-11-18T06:04:01.947Z,3.14
2023-11-18T06:06:29.886Z,3.12
2023-11-18T06:09:00.095Z,3.14
2023-11-18T06:11:27.782Z,3.14
2023-11-18T06:13:55.731Z,3.15
2023-11-18T06:16:25.497Z,3.15
2023-11-18T06:18:54.766Z,3.28
2023-11-18T06:21:25.827Z,3.44
2023-11-18T06:23:56.042Z,3.52
2023-11-18T06:26:27.955Z,3.72
2023-11-18T06:28:56.988Z,3.75
2023-11-18T06:31:25.896Z,3.85
2023-11-18T06:33:54.352Z,3.85
2023-11-18T06:36:23.643Z,3.93
2023-11-18T06:38:53.556Z,3.90
2023-11-18T06:41:25.152Z,3.88
2023-11-18T06:43:58.497Z,3.85
2023-11-18T06:46:32.748Z,3.85
2023-11-18T06:49:00.594Z,3.76
2023-11-18T06:51:29.366Z,3.55
2023-11-18T06:53:58.148Z,3.54
2023-11-18T06:56:26.093Z,3.53
2023-11-18T06:58:55.625Z,3.51
2023-11-18T07:01:24.066Z,3.51
2023-11-18T07:03:54.129Z,3.62
2023-11-18T07:06:23.378Z,3.68
2023-11-18T07:08:51.745Z,3.82
2023-11-18T07:11:19.882Z,3.98
2023-11-18T07:13:49.069Z,3.98
2023-11-18T07:16:20.063Z,3.92
2023-11-18T07:18:47.853Z,3.84
2023-11-18T07:21:15.618Z,3.73
2023-11-18T07:23:44.106Z,3.80
2023-11-18T07:26:12.138Z,3.72
2023-11-18T07:28:39.889Z,3.71
2023-11-18T07:31:09.026Z,3.75
2023-11-18T07:33:38.072Z,3.52
2023-11-18T07:36:07.258Z,3.51
2023-11-18T07:38:35.879Z,3.61
2023-11-18T07:41:04.357Z,3.78
2023-11-18T07:43:32.282Z,3.66
2023-11-18T07:46:00.221Z,3.85
2023-11-18T07:48:29.190Z,3.75
2023-11-18T07:50:58.646Z,3.90
2023-11-18T07:53:26.925Z,3.93
2023-11-18T07:55:54.736Z,3.81
2023-11-18T07:58:24.190Z,3.88
2023-11-18T08:00:52.195Z,4.01
2023-11-18T08:03:21.578Z,4.04
2023-11-18T08:05:49.895Z,4.06
2023-11-18T08:08:19.118Z,4.19
2023-11-18T08:10:49.617Z,4.24
2023-11-18T08:13:17.433Z,4.32
2023-11-18T08:15:46.840Z,4.46
2023-11-18T08:18:15.270Z,4.56
2023-11-18T08:20:44.593Z,4.67
2023-11-18T08:23:12.735Z,4.73
2023-11-18T08:25:42.096Z,4.81
2023-11-18T08:28:10.740Z,4.92
2023-11-18T08:30:40.336Z,4.97
2023-11-18T08:33:10.192Z,4.80
2023-11-18T08:35:38.634Z,4.88
2023-11-18T08:38:08.703Z,5.01
2023-11-18T08:40:36.931Z,4.89
2023-11-18T08:43:08.843Z,5.02
2023-11-18T08:45:38.670Z,5.07
2023-11-18T08:48:08.738Z,5.15
2023-11-18T08:50:38.090Z,5.20
2023-11-18T08:53:11.345Z,5.26
2023-11-18T08:55:51.953Z,5.47
2023-11-18T08:58:23.228Z,5.53
2023-11-18T09:00:55.979Z,5.33
2023-11-18T09:03:29.971Z,5.41
2023-11-18T09:06:00.822Z,5.60
2023-11-18T09:08:30.940Z,5.51
2023-11-18T09:10:59.284Z,5.62
2023-11-18T09:13:30.028Z,5.77
2023-11-18T09:15:58.657Z,5.79
2023-11-18T09:18:27.871Z,5.87
2023-11-18T09:20:56.577Z,5.90
2023-11-18T09:23:26.656Z,6.00
2023-11-18T09:25:55.969Z,5.99
2023-11-18T09:28:26.566Z,5.93
2023-11-18T09:30:58.829Z,5.89
2023-11-18T09:33:30.270Z,6.06
2023-11-18T09:36:00.799Z,6.20
2023-11-18T09:38:32.646Z,6.36
2023-11-18T09:41:03.947Z,6.46
2023-11-18T09:43:34.274Z,6.54
2023-11-18T09:46:13.653Z,6.56
2023-11-18T09:48:48.144Z,6.57
2023-11-18T09:51:23.046Z,6.69
2023-11-18T09:53:53.432Z,6.58
2023-11-18T09:56:40.383Z,6.70
2023-11-18T09:59:17.637Z,6.64
2023-11-18T10:01:56.892Z,6.90
2023-11-18T10:04:28.687Z,6.76
2023-11-18T10:07:02.342Z,6.77
2023-11-18T10:09:44.184Z,6.89
2023-11-18T10:12:19.078Z,6.86
2023-11-18T10:14:46.877Z,7.04
2023-11-18T10:17:16.620Z,6.94
2023-11-18T10:20:02.130Z,6.93
2023-11-18T10:22:37.058Z,6.93
2023-11-18T10:25:07.270Z,7.01
2023-11-18T10:27:40.905Z,7.16
2023-11-18T10:30:19.908Z,7.29
2023-11-18T10:33:06.381Z,7.28
2023-11-18T10:35:36.862Z,7.40
2023-11-18T10:38:06.520Z,7.54
2023-11-18T10:40:38.459Z,7.55
2023-11-18T10:43:10.828Z,7.68
2023-11-18T10:45:51.832Z,7.59
2023-11-18T10:48:22.221Z,7.62
2023-11-18T10:50:51.945Z,7.59
2023-11-18T10:53:22.739Z,7.65
2023-11-18T10:55:51.614Z,7.65
2023-11-18T10:58:20.726Z,7.59
2023-11-18T11:00:50.334Z,7.71
2023-11-18T11:03:19.460Z,7.70
2023-11-18T11:05:50.946Z,7.70
2023-11-18T11:08:26.693Z,7.77
2023-11-18T11:11:09.244Z,7.86
2023-11-18T11:13:42.803Z,7.85
2023-11-18T11:16:14.743Z,7.88
2023-11-18T11:18:52.459Z,7.81
2023-11-18T11:21:23.927Z,7.79
2023-11-18T11:23:56.797Z,7.79
2023-11-18T11:26:41.421Z,7.75
2023-11-18T11:29:27.579Z,7.78
2023-11-18T11:32:07.922Z,7.89
2023-11-18T11:34:43.580Z,8.00
2023-11-18T11:37:16.134Z,7.92
2023-11-18T11:39:48.989Z,7.99
2023-11-18T11:42:22.029Z,7.97
2023-11-18T11:44:53.110Z,7.98
2023-11-18T11:47:27.593Z,8.10
2023-11-18T11:50:02.242Z,8.04
2023-11-18T11:52:40.715Z,8.03
2023-11-18T11:55:20.449Z,8.01
2023-11-18T11:57:54.479Z,7.98
2023-11-18T12:00:26.799Z,7.91
2023-11-18T12:02:56.589Z,7.95
2023-11-18T12:05:27.659Z,7.94
2023-11-18T12:07:59.899Z,8.04
2023-11-18T12:10:31.988Z,7.92
2023-11-18T12:13:17.674Z,7.94
2023-11-18T12:15:58.159Z,8.12
2023-11-18T12:18:26.377Z,8.21
2023-11-18T12:21:01.149Z,8.21
2023-11-18T12:23:31.656Z,8.28
2023-11-18T12:26:00.001Z,8.37
2023-11-18T12:28:36.588Z,8.29
2023-11-18T12:31:19.017Z,8.40
2023-11-18T12:34:04.098Z,8.35
2023-11-18T12:36:58.129Z,8.44
2023-11-18T12:39:59.515Z,8.49
2023-11-18T12:43:00.124Z,8.36
2023-11-18T12:45:46.657Z,8.45
2023-11-18T12:48:23.781Z,8.42
2023-11-18T12:50:53.368Z,8.48
2023-11-18T12:53:26.464Z,8.49
2023-11-18T12:59:14.296Z,8.36
2023-11-18T13:01:46.001Z,8.35
2023-11-18T13:04:15.327Z,8.41
2023-11-18T13:06:44.014Z,8.45
2023-11-18T13:09:12.334Z,8.44
2023-11-18T13:11:43.852Z,8.49
2023-11-18T13:14:13.244Z,8.34
2023-11-18T13:16:42.477Z,8.33
2023-11-18T13:19:11.326Z,8.51
2023-11-18T13:21:39.192Z,8.53
2023-11-18T13:24:15.734Z,8.53
2023-11-18T13:26:44.966Z,8.69
2023-11-18T13:29:12.835Z,8.67
2023-11-18T13:31:41.568Z,8.69
2023-11-18T13:34:09.694Z,8.61
2023-11-18T13:36:38.100Z,8.57
2023-11-18T13:39:08.257Z,8.55
2023-11-18T13:41:37.718Z,8.51
2023-11-18T13:44:07.624Z,8.48
2023-11-18T13:46:35.413Z,8.45
2023-11-18T13:49:04.193Z,8.39
2023-11-18T13:51:31.917Z,8.36
2023-11-18T13:54:00.639Z,8.33
2023-11-18T13:56:33.920Z,8.27
2023-11-18T13:59:01.785Z,8.22
2023-11-18T14:01:30.452Z,8.19
2023-11-18T14:04:03.117Z,8.15
2023-11-18T14:06:32.768Z,8.03
2023-11-18T14:09:00.676Z,8.10
2023-11-18T14:11:28.419Z,8.15
2023-11-18T14:13:56.417Z,8.09
2023-11-18T14:16:24.910Z,8.09
2023-11-18T14:18:54.527Z,8.05
2023-11-18T14:21:22.345Z,8.05
2023-11-18T14:23:51.817Z,8.06
2023-11-18T14:26:19.584Z,7.90
2023-11-18T14:28:47.702Z,7.82
2023-11-18T14:31:15.641Z,7.78
2023-11-18T14:33:43.467Z,7.64
2023-11-18T14:36:12.834Z,7.79
2023-11-18T14:38:40.736Z,7.84
2023-11-18T14:41:09.161Z,7.83
2023-11-18T14:43:39.216Z,7.80
2023-11-18T14:46:17.177Z,7.78
2023-11-18T14:48:47.826Z,7.83
2023-11-18T14:51:17.100Z,7.88
2023-11-18T14:53:45.406Z,7.84
2023-11-18T14:56:13.204Z,7.84
2023-11-18T14:58:45.523Z,7.77
2023-11-18T15:01:16.469Z,7.90
2023-11-18T15:03:44.392Z,7.84
2023-11-18T15:06:13.187Z,7.84
2023-11-18T15:08:44.925Z,7.82
2023-11-18T15:11:16.468Z,7.76
2023-11-18T15:13:44.309Z,7.78
2023-11-18T15:16:17.470Z,7.86
2023-11-18T15:18:48.079Z,7.82
2023-11-18T15:21:16.436Z,7.83
2023-11-18T15:23:46.643Z,7.82
2023-11-18T15:26:16.712Z,8.00
2023-11-18T15:28:44.765Z,7.93
2023-11-18T15:31:13.682Z,7.92
2023-11-18T15:33:46.294Z,7.95
2023-11-18T15:36:15.715Z,7.87
2023-11-18T15:38:44.404Z,7.80
2023-11-18T15:41:13.711Z,7.82
2023-11-18T15:43:41.647Z,7.96
2023-11-18T15:46:12.145Z,7.96
2023-11-18T15:48:40.098Z,7.97
2023-11-18T15:51:08.203Z,7.91
2023-11-18T15:53:37.902Z,7.93
2023-11-18T15:56:06.667Z,7.96
2023-11-18T15:58:36.982Z,7.87
2023-11-18T16:01:05.550Z,7.90
2023-11-18T16:03:33.363Z,7.95
2023-11-18T16:06:01.184Z,7.84
2023-11-18T16:08:29.008Z,7.91
2023-11-18T16:10:56.788Z,7.84
2023-11-18T16:13:24.807Z,7.86
2023-11-18T16:15:54.592Z,7.84
2023-11-18T16:18:23.620Z,7.78
2023-11-18T16:20:53.122Z,7.75
2023-11-18T16:23:22.335Z,7.78
2023-11-18T16:25:50.428Z,7.77
2023-11-18T16:28:18.322Z,7.63
2023-11-18T16:30:46.204Z,7.73
2023-11-18T16:33:15.368Z,7.77
2023-11-18T16:35:44.564Z,7.76
2023-11-18T16:38:14.447Z,7.81
2023-11-18T16:40:42.435Z,7.74
2023-11-18T16:43:10.240Z,7.65
2023-11-18T16:45:38.302Z,7.68
2023-11-18T16:48:07.445Z,7.62
2023-11-18T16:50:37.357Z,7.68
2023-11-18T16:53:05.818Z,7.70
2023-11-18T16:55:35.756Z,7.64
2023-11-18T16:58:03.592Z,7.61
2023-11-18T17:00:33.426Z,7.60
2023-11-18T17:03:01.487Z,7.52
2023-11-18T17:05:31.197Z,7.53
2023-11-18T17:08:02.387Z,7.48
2023-11-18T17:10:30.800Z,7.41
2023-11-18T17:12:59.015Z,7.59
2023-11-18T17:15:26.940Z,7.53
2023-11-18T17:18:01.973Z,7.52
2023-11-18T17:20:31.116Z,7.59
2023-11-18T17:22:58.991Z,7.59
2023-11-18T17:25:28.096Z,7.54
2023-11-18T17:27:55.977Z,7.67
2023-11-18T17:30:23.933Z,7.44
2023-11-18T17:32:53.162Z,7.54
2023-11-18T17:35:22.919Z,7.54
2023-11-18T17:37:51.089Z,7.46
2023-11-18T17:40:22.484Z,7.49
2023-11-18T17:42:54.591Z,7.50
2023-11-18T17:45:25.054Z,7.58
2023-11-18T17:47:53.385Z,7.49
2023-11-18T17:50:21.244Z,7.50
2023-11-18T17:52:51.104Z,7.45
2023-11-18T17:55:19.374Z,7.49
2023-11-18T17:57:47.452Z,7.50
2023-11-18T18:00:25.168Z,7.55
2023-11-18T18:02:54.341Z,7.48
2023-11-18T18:05:24.376Z,7.47
2023-11-18T18:07:53.045Z,7.53
2023-11-18T18:10:22.934Z,7.41
2023-11-18T18:12:52.158Z,7.45
2023-11-18T18:15:21.693Z,7.43
2023-11-18T18:17:49.757Z,7.51
2023-11-18T18:20:21.021Z,7.46
2023-11-18T18:22:50.124Z,7.40
2023-11-18T18:25:19.200Z,7.29
2023-11-18T18:27:47.151Z,7.30
2023-11-18T18:30:17.366Z,7.25
2023-11-18T18:32:48.033Z,7.29
2023-11-18T18:35:17.497Z,7.37
2023-11-18T18:37:45.519Z,7.41
2023-11-18T18:40:15.623Z,7.41
2023-11-18T18:42:43.769Z,7.38
2023-11-18T18:45:13.601Z,7.39
2023-11-18T18:47:41.324Z,7.36
2023-11-18T18:50:11.674Z,7.35
2023-11-18T18:52:39.408Z,7.37
2023-11-18T18:55:08.547Z,7.36
2023-11-18T18:57:36.404Z,7.48
2023-11-18T19:00:05.574Z,7.39
2023-11-18T19:02:33.380Z,7.42
2023-11-18T19:05:01.348Z,7.44
2023-11-18T19:07:33.123Z,7.37
2023-11-18T19:10:03.417Z,7.44
2023-11-18T19:12:31.591Z,7.29
2023-11-18T19:14:59.361Z,7.32
2023-11-18T19:17:27.316Z,7.29
2023-11-18T19:19:55.359Z,7.38
2023-11-18T19:22:23.008Z,7.50
2023-11-18T19:24:52.425Z,7.56
2023-11-18T19:27:20.187Z,7.64
2023-11-18T19:29:48.275Z,7.72
2023-11-18T19:32:16.045Z,7.68
2023-11-18T19:34:43.812Z,7.71
2023-11-18T19:37:12.174Z,7.68
2023-11-18T19:39:41.396Z,7.59
2023-11-18T19:42:11.558Z,7.69
2023-11-18T19:44:39.292Z,7.67
2023-11-18T19:47:07.962Z,7.71
2023-11-18T19:49:36.046Z,7.78
2023-11-18T19:52:04.968Z,7.75
2023-11-18T19:54:33.714Z,7.72
2023-11-18T19:57:01.884Z,7.65
2023-11-18T19:59:33.676Z,7.61
2023-11-18T20:02:01.958Z,7.64
2023-11-18T20:04:31.120Z,7.68
2023-11-18T20:06:59.165Z,7.68
2023-11-18T20:09:27.629Z,7.68
2023-11-18T20:12:04.663Z,7.76
2023-11-18T20:14:35.063Z,7.79
2023-11-18T20:17:03.142Z,7.73
2023-11-18T20:19:33.598Z,7.70
2023-11-18T20:22:01.663Z,7.72
2023-11-18T20:24:30.005Z,7.77
2023-11-18T20:26:59.037Z,7.72
2023-11-18T20:29:26.851Z,7.73
2023-11-18T20:31:55.960Z,7.75
2023-11-18T20:34:23.765Z,7.76
2023-11-18T20:36:51.577Z,7.82
2023-11-18T20:39:19.763Z,7.74
2023-11-18T20:41:49.836Z,7.77
2023-11-18T20:44:17.884Z,7.75
2023-11-18T20:46:46.646Z,7.76
2023-11-18T20:49:18.556Z,7.76
2023-11-18T20:51:46.774Z,7.80
2023-11-18T20:54:15.270Z,7.82
2023-11-18T20:56:43.211Z,7.80
2023-11-18T20:59:11.229Z,7.84
2023-11-18T21:01:38.959Z,7.87
2023-11-18T21:04:07.432Z,7.81
2023-11-18T21:06:36.681Z,7.84
2023-11-18T21:09:04.602Z,7.86
2023-11-18T21:11:32.916Z,7.87
2023-11-18T21:14:01.118Z,7.84
2023-11-18T21:16:31.519Z,7.84
2023-11-18T21:19:01.821Z,7.86
2023-11-18T21:21:30.067Z,7.82
2023-11-18T21:24:03.953Z,7.84
2023-11-18T21:26:32.078Z,7.82
2023-11-18T21:31:45.095Z,7.85
2023-11-18T21:34:13.064Z,7.89
2023-11-18T21:36:40.916Z,7.80
2023-11-18T21:39:13.772Z,7.84
2023-11-18T21:41:41.760Z,7.95
2023-11-18T21:44:09.950Z,7.93
2023-11-18T21:46:38.309Z,7.98
2023-11-18T21:49:10.816Z,7.95
2023-11-18T21:51:39.054Z,7.94
2023-11-18T21:54:07.134Z,7.94
2023-11-18T21:56:36.980Z,7.99
2023-11-18T21:59:05.233Z,8.01
2023-11-18T22:01:33.413Z,7.95
2023-11-18T22:04:01.273Z,7.95
2023-11-18T22:06:29.953Z,8.04
2023-11-18T22:08:58.841Z,8.16
2023-11-18T22:11:26.619Z,8.22
2023-11-18T22:13:57.239Z,8.32
2023-11-18T22:16:28.949Z,8.20
2023-11-18T22:18:56.784Z,8.23
2023-11-18T22:21:26.122Z,8.15
2023-11-18T22:23:54.073Z,8.19
2023-11-18T22:26:24.052Z,8.15
2023-11-18T22:28:57.143Z,8.18
2023-11-18T22:31:27.465Z,8.16
2023-11-18T22:33:57.980Z,8.17
2023-11-18T22:36:25.821Z,8.16
2023-11-18T22:38:53.620Z,8.15
2023-11-18T22:41:23.376Z,8.19
2023-11-18T22:43:54.384Z,8.19
2023-11-18T22:46:23.519Z,8.24
2023-11-18T22:48:53.471Z,8.27
2023-11-18T22:51:21.521Z,8.31
2023-11-18T22:53:52.916Z,8.29
2023-11-18T22:56:20.977Z,8.39
2023-11-18T22:58:50.887Z,8.40
2023-11-18T23:01:22.891Z,8.38
2023-11-18T23:03:52.583Z,8.38
2023-11-18T23:06:26.655Z,8.38
2023-11-18T23:08:55.478Z,8.35
2023-11-18T23:11:26.505Z,8.39
2023-11-18T23:13:56.711Z,8.62
2023-11-18T23:16:24.809Z,8.55
2023-11-18T23:19:00.129Z,8.54
2023-11-18T23:21:33.315Z,8.56
2023-11-18T23:24:03.544Z,8.55
2023-11-18T23:26:31.439Z,8.48
2023-11-18T23:29:00.840Z,8.54
2023-11-18T23:31:31.501Z,8.58
2023-11-18T23:34:03.434Z,8.62
2023-11-18T23:36:31.133Z,8.60
2023-11-18T23:39:03.551Z,8.63
2023-11-18T23:41:31.881Z,8.61
2023-11-18T23:44:03.762Z,8.71
2023-11-18T23:46:32.722Z,8.73
2023-11-18T23:49:01.929Z,8.77
2023-11-18T23:51:31.207Z,8.70
2023-11-18T23:53:58.988Z,8.66
2023-11-18T23:56:29.394Z,8.75
2023-11-18T23:58:58.801Z,8.66
